createdAt,value
2022-08-27T00:01:39.944Z,6.13
2022-08-27T00:04:06.558Z,5.00
2022-08-27T00:06:33.433Z,5.13
2022-08-27T00:09:00.076Z,5.47
2022-08-27T00:11:26.724Z,6.10
2022-08-27T00:13:53.260Z,6.57
2022-08-27T00:16:20.700Z,6.18
2022-08-27T00:18:48.440Z,7.63
2022-08-27T00:23:41.928Z,8.15
2022-08-27T00:26:10.313Z,7.47
2022-08-27T00:28:37.710Z,6.57
2022-08-27T00:31:04.781Z,6.60
2022-08-27T00:33:32.024Z,6.40
2022-08-27T00:35:59.481Z,7.17
2022-08-27T00:38:26.692Z,6.97
2022-08-27T00:40:53.996Z,7.55
2022-08-27T00:43:25.689Z,7.20
2022-08-27T00:45:55.675Z,7.15
2022-08-27T00:48:27.433Z,6.80
2022-08-27T00:50:55.826Z,7.32
2022-08-27T00:53:26.602Z,7.28
2022-08-27T00:55:58.023Z,6.88
2022-08-27T00:58:37.310Z,6.75
2022-08-27T01:01:07.053Z,6.63
2022-08-27T01:03:34.689Z,7.00
2022-08-27T01:08:32.874Z,9.90
2022-08-27T01:11:01.227Z,11.70
2022-08-27T01:13:58.793Z,13.07
2022-08-27T01:16:24.211Z,13.95
2022-08-27T01:18:51.384Z,21.42
2022-08-27T01:21:18.071Z,23.20
2022-08-27T01:23:51.283Z,23.20
2022-08-27T01:26:18.543Z,24.63
2022-08-27T01:28:45.594Z,24.00
2022-08-27T01:31:13.303Z,22.70
2022-08-27T01:36:07.293Z,17.93
2022-08-27T01:38:34.389Z,17.63
2022-08-27T01:41:03.413Z,14.63
2022-08-27T01:43:31.470Z,15.57
2022-08-27T01:45:58.542Z,13.75
2022-08-27T01:48:25.173Z,13.50
2022-08-27T01:50:51.896Z,14.15
2022-08-27T01:53:22.203Z,14.20
2022-08-27T01:55:50.663Z,14.77
2022-08-27T01:58:19.439Z,18.88
2022-08-27T02:00:56.105Z,19.60
2022-08-27T02:03:23.541Z,21.42
2022-08-27T02:05:50.291Z,23.63
2022-08-27T02:08:18.479Z,26.25
2022-08-27T02:10:47.147Z,26.92
2022-08-27T02:13:14.202Z,26.98
2022-08-27T02:15:41.976Z,28.48
2022-08-27T02:20:37.222Z,28.90
2022-08-27T02:23:04.852Z,29.33
2022-08-27T02:28:00.259Z,31.10
2022-08-27T02:30:29.966Z,32.63
2022-08-27T02:32:56.540Z,34.47
2022-08-27T02:35:25.233Z,33.00
2022-08-27T02:37:52.803Z,30.60
2022-08-27T02:40:22.194Z,31.90
2022-08-27T02:42:48.775Z,31.77
2022-08-27T02:45:16.553Z,31.02
2022-08-27T02:47:43.138Z,27.17
2022-08-27T02:50:10.883Z,27.10
2022-08-27T02:52:37.595Z,25.20
2022-08-27T02:55:05.394Z,24.65
2022-08-27T03:00:07.515Z,21.30
2022-08-27T03:02:34.516Z,19.95
2022-08-27T03:05:01.144Z,18.15
2022-08-27T03:07:27.853Z,16.23
2022-08-27T03:09:54.370Z,17.60
2022-08-27T03:12:22.975Z,13.30
2022-08-27T03:14:51.582Z,13.63
2022-08-27T03:17:36.921Z,14.30
2022-08-27T03:20:05.356Z,12.95
2022-08-27T03:22:31.945Z,12.90
2022-08-27T03:24:58.543Z,12.30
2022-08-27T03:27:25.113Z,11.90
2022-08-27T03:29:51.673Z,10.40
2022-08-27T03:32:18.307Z,10.95
2022-08-27T03:34:44.814Z,9.60
2022-08-27T03:37:11.621Z,9.70
2022-08-27T03:39:38.118Z,9.17
2022-08-27T03:42:05.063Z,8.73
2022-08-27T03:44:31.766Z,8.37
2022-08-27T03:46:58.616Z,8.37
2022-08-27T03:49:25.209Z,8.57
2022-08-27T03:51:53.899Z,9.60
2022-08-27T03:56:47.204Z,9.52
2022-08-27T03:59:15.528Z,10.47
2022-08-27T04:01:43.038Z,10.75
2022-08-27T04:04:09.917Z,12.55
2022-08-27T04:06:36.507Z,12.30
2022-08-27T04:09:04.114Z,11.38
2022-08-27T04:13:57.292Z,12.20
2022-08-27T04:16:25.808Z,13.35
2022-08-27T04:18:52.884Z,12.63
2022-08-27T04:21:19.488Z,11.45
2022-08-27T04:23:46.047Z,13.25
2022-08-27T04:26:12.732Z,11.35
2022-08-27T04:28:39.345Z,11.75
2022-08-27T04:31:07.414Z,11.52
2022-08-27T04:33:43.177Z,10.10
2022-08-27T04:36:17.849Z,10.63
2022-08-27T04:38:44.487Z,10.07
2022-08-27T04:41:20.038Z,10.02
2022-08-27T04:43:53.924Z,10.30
2022-08-27T04:46:22.362Z,10.38
2022-08-27T04:48:48.916Z,9.02
2022-08-27T04:51:16.831Z,10.10
2022-08-27T04:53:44.953Z,9.90
2022-08-27T04:56:15.290Z,9.88
2022-08-27T04:58:42.327Z,10.15
2022-08-27T05:01:12.218Z,11.23
2022-08-27T05:03:38.955Z,10.30
2022-08-27T05:06:06.473Z,11.07
2022-08-27T05:08:33.841Z,10.00
2022-08-27T05:11:01.941Z,9.85
2022-08-27T05:13:29.228Z,9.27
2022-08-27T05:16:07.420Z,10.02
2022-08-27T05:18:42.135Z,9.30
2022-08-27T05:21:23.669Z,9.90
2022-08-27T05:23:51.614Z,9.45
2022-08-27T05:26:18.518Z,10.95
2022-08-27T05:28:45.427Z,9.67
2022-08-27T05:31:13.860Z,10.87
2022-08-27T05:33:44.572Z,8.88
2022-08-27T05:36:20.991Z,9.13
2022-08-27T05:38:49.388Z,9.32
2022-08-27T05:41:19.375Z,8.93
2022-08-27T05:43:50.106Z,8.30
2022-08-27T05:46:21.129Z,7.47
2022-08-27T05:48:48.722Z,8.10
2022-08-27T05:51:29.357Z,7.40
2022-08-27T05:54:00.433Z,7.55
2022-08-27T05:56:29.907Z,8.23
2022-08-27T05:59:15.576Z,8.98
2022-08-27T06:01:48.384Z,9.68
2022-08-27T06:04:17.628Z,9.80
2022-08-27T06:06:46.256Z,9.27
2022-08-27T06:09:16.213Z,9.65
2022-08-27T06:11:42.955Z,10.25
2022-08-27T06:14:10.447Z,10.20
2022-08-27T06:16:38.502Z,10.38
2022-08-27T06:19:06.755Z,10.43
2022-08-27T06:21:33.767Z,11.30
2022-08-27T06:24:00.768Z,10.63
2022-08-27T06:26:28.127Z,10.57
2022-08-27T06:28:55.416Z,10.75
2022-08-27T06:33:40.930Z,11.25
2022-08-27T06:36:10.838Z,11.05
2022-08-27T06:38:38.268Z,11.80
2022-08-27T06:41:07.225Z,12.20
2022-08-27T06:43:44.039Z,11.63
2022-08-27T06:46:14.368Z,11.43
2022-08-27T06:48:43.995Z,12.65
2022-08-27T06:51:18.457Z,12.93
2022-08-27T06:53:47.407Z,11.40
2022-08-27T06:56:15.895Z,13.13
2022-08-27T06:58:42.987Z,12.38
2022-08-27T07:01:22.429Z,12.20
2022-08-27T07:03:49.429Z,12.32
2022-08-27T07:06:16.866Z,14.20
2022-08-27T07:08:44.125Z,12.18
2022-08-27T07:11:20.328Z,12.10
2022-08-27T07:13:48.614Z,13.33
2022-08-27T07:16:19.187Z,11.20
2022-08-27T07:18:45.923Z,10.85
2022-08-27T07:21:12.979Z,12.88
2022-08-27T07:23:40.128Z,12.90
2022-08-27T07:26:11.308Z,12.30
2022-08-27T07:28:39.536Z,12.20
2022-08-27T07:31:09.169Z,11.75
2022-08-27T07:33:37.644Z,12.73
2022-08-27T07:36:06.481Z,12.23
2022-08-27T07:38:34.046Z,12.45
2022-08-27T07:41:04.374Z,11.68
2022-08-27T07:43:49.443Z,11.45
2022-08-27T07:46:22.429Z,10.73
2022-08-27T07:48:50.448Z,10.80
2022-08-27T07:51:20.395Z,10.93
2022-08-27T07:53:48.186Z,10.85
2022-08-27T07:56:15.267Z,9.80
2022-08-27T07:58:42.240Z,10.00
2022-08-27T08:01:09.320Z,9.90
2022-08-27T08:03:36.306Z,9.82
2022-08-27T08:06:11.669Z,8.87
2022-08-27T08:08:44.022Z,9.10
2022-08-27T08:11:13.585Z,9.60
2022-08-27T08:13:40.190Z,8.95
2022-08-27T08:16:07.251Z,9.52
2022-08-27T08:18:35.310Z,9.50
2022-08-27T08:21:04.637Z,9.70
2022-08-27T08:23:34.177Z,8.70
2022-08-27T08:26:01.947Z,9.35
2022-08-27T08:28:30.250Z,9.48
2022-08-27T08:30:57.995Z,8.65
2022-08-27T08:33:25.308Z,9.02
2022-08-27T08:35:52.981Z,9.32
2022-08-27T08:40:50.604Z,8.60
2022-08-27T08:43:33.330Z,8.85
2022-08-27T08:46:08.640Z,9.00
2022-08-27T08:48:37.237Z,8.43
2022-08-27T08:51:13.727Z,8.88
2022-08-27T08:53:48.964Z,7.95
2022-08-27T08:56:22.907Z,8.68
2022-08-27T08:59:01.933Z,8.85
2022-08-27T09:01:29.064Z,9.05
2022-08-27T09:04:03.874Z,8.80
2022-08-27T09:06:54.657Z,8.68
2022-08-27T09:09:30.273Z,8.35
2022-08-27T09:12:14.968Z,8.00
2022-08-27T09:14:48.280Z,8.13
2022-08-27T09:17:14.884Z,7.63
2022-08-27T09:19:42.926Z,9.07
2022-08-27T09:22:38.427Z,8.27
2022-08-27T09:25:15.879Z,7.97
2022-08-27T09:27:45.664Z,7.68
2022-08-27T09:30:20.847Z,8.00
2022-08-27T09:32:57.795Z,7.32
2022-08-27T09:35:27.643Z,7.30
2022-08-27T09:37:56.113Z,6.85
2022-08-27T09:40:29.031Z,7.05
2022-08-27T09:43:07.936Z,7.45
2022-08-27T09:45:35.734Z,6.82
2022-08-27T09:48:11.065Z,6.63
2022-08-27T09:50:43.842Z,6.50
2022-08-27T09:53:21.647Z,6.60
2022-08-27T09:55:53.136Z,6.10
2022-08-27T09:58:34.549Z,6.05
2022-08-27T10:01:21.365Z,5.80
2022-08-27T10:03:49.549Z,5.43
2022-08-27T10:06:28.129Z,4.75
2022-08-27T10:08:58.910Z,4.55
2022-08-27T10:11:32.690Z,4.55
2022-08-27T10:14:06.166Z,3.40
2022-08-27T10:16:57.528Z,3.45
2022-08-27T10:19:33.212Z,3.35
2022-08-27T10:22:18.553Z,3.45
2022-08-27T10:25:06.251Z,3.40
2022-08-27T10:27:41.456Z,3.35
2022-08-27T10:30:14.053Z,3.30
2022-08-27T10:33:10.542Z,3.53
2022-08-27T10:35:54.736Z,2.97
2022-08-27T10:38:44.807Z,3.42
2022-08-27T10:41:22.368Z,3.10
2022-08-27T10:46:53.608Z,3.78
2022-08-27T10:49:21.149Z,3.42
2022-08-27T10:51:50.942Z,3.38
2022-08-27T10:54:39.119Z,3.55
2022-08-27T10:57:53.994Z,3.65
2022-08-27T11:00:13.722Z,4.03
2022-08-27T11:02:44.940Z,6.03
2022-08-27T11:05:45.959Z,5.05
2022-08-27T11:08:21.760Z,4.13
2022-08-27T11:10:55.298Z,4.78
2022-08-27T11:13:41.222Z,4.10
2022-08-27T11:16:19.183Z,4.38
2022-08-27T11:18:57.341Z,4.57
2022-08-27T11:21:42.746Z,4.07
2022-08-27T11:24:36.417Z,3.97
2022-08-27T11:27:07.203Z,4.97
2022-08-27T11:29:39.386Z,5.55
2022-08-27T11:32:28.171Z,7.05
2022-08-27T11:35:02.704Z,8.50
2022-08-27T11:38:14.022Z,7.97
2022-08-27T11:40:55.377Z,8.60
2022-08-27T11:43:25.821Z,8.30
2022-08-27T11:46:07.939Z,9.05
2022-08-27T11:48:39.881Z,8.68
2022-08-27T11:51:28.645Z,9.30
2022-08-27T11:53:59.375Z,7.68
2022-08-27T11:56:28.907Z,7.75
2022-08-27T11:58:56.137Z,8.15
2022-08-27T12:01:27.443Z,8.65
2022-08-27T12:04:20.595Z,7.53
2022-08-27T12:06:53.705Z,8.07
2022-08-27T12:09:23.175Z,8.13
2022-08-27T12:12:04.341Z,7.05
2022-08-27T12:14:49.670Z,6.90
2022-08-27T12:17:30.455Z,6.43
2022-08-27T12:20:10.634Z,5.15
2022-08-27T12:23:01.683Z,5.05
2022-08-27T12:25:28.641Z,4.00
2022-08-27T12:27:58.799Z,4.68
2022-08-27T12:30:38.054Z,4.63
2022-08-27T12:33:12.927Z,4.30
2022-08-27T12:35:49.003Z,7.60
2022-08-27T12:38:22.356Z,4.68
2022-08-27T12:40:55.004Z,4.80
2022-08-27T12:43:24.840Z,5.03
2022-08-27T12:45:57.114Z,5.15
2022-08-27T12:48:28.481Z,4.93
2022-08-27T12:50:58.119Z,5.03
2022-08-27T12:53:46.474Z,4.53
2022-08-27T12:56:19.146Z,5.53
2022-08-27T12:59:11.650Z,5.25
2022-08-27T13:02:15.505Z,4.85
2022-08-27T13:04:43.498Z,5.30
2022-08-27T13:07:10.276Z,5.55
2022-08-27T13:09:39.396Z,5.43
2022-08-27T13:12:15.067Z,4.63
2022-08-27T13:14:41.712Z,4.93
2022-08-27T13:17:15.904Z,4.33
2022-08-27T13:19:51.488Z,4.57
2022-08-27T13:22:26.592Z,5.65
2022-08-27T13:24:56.204Z,5.05
2022-08-27T13:27:27.057Z,5.00
2022-08-27T13:29:54.629Z,5.68
2022-08-27T13:32:23.298Z,5.10
2022-08-27T13:34:50.071Z,4.75
2022-08-27T13:37:49.553Z,4.90
2022-08-27T13:40:31.905Z,4.03
2022-08-27T13:43:05.278Z,4.00
2022-08-27T13:45:37.311Z,4.68
2022-08-27T13:48:05.646Z,4.50
2022-08-27T13:50:34.267Z,4.95
2022-08-27T13:53:24.935Z,4.72
2022-08-27T13:55:53.454Z,4.07
2022-08-27T13:58:28.301Z,4.63
2022-08-27T14:00:55.932Z,4.40
2022-08-27T14:03:34.182Z,5.05
2022-08-27T14:06:01.636Z,4.43
2022-08-27T14:11:10.845Z,5.00
2022-08-27T14:13:47.759Z,4.43
2022-08-27T14:16:27.060Z,5.53
2022-08-27T14:19:15.124Z,6.07
2022-08-27T14:21:46.193Z,5.13
2022-08-27T14:24:13.871Z,4.85
2022-08-27T14:26:40.417Z,5.18
2022-08-27T14:29:12.166Z,5.22
2022-08-27T14:31:39.233Z,5.07
2022-08-27T14:34:07.014Z,4.13
2022-08-27T14:36:37.183Z,4.23
2022-08-27T14:39:04.947Z,3.42
2022-08-27T14:41:33.227Z,3.72
2022-08-27T14:43:59.822Z,3.30
2022-08-27T14:46:28.951Z,3.93
2022-08-27T14:48:58.265Z,3.78
2022-08-27T14:51:29.089Z,3.13
2022-08-27T14:53:57.041Z,3.90
2022-08-27T14:56:24.682Z,3.90
2022-08-27T14:58:51.858Z,4.25
2022-08-27T15:01:22.853Z,4.50
2022-08-27T15:03:51.240Z,4.35
2022-08-27T15:06:19.295Z,6.13
2022-08-27T15:08:49.713Z,7.05
2022-08-27T15:11:24.531Z,9.23
2022-08-27T15:13:52.706Z,7.70
2022-08-27T15:16:40.424Z,7.70
2022-08-27T15:19:10.015Z,8.00
2022-08-27T15:21:39.248Z,7.63
2022-08-27T15:24:28.642Z,7.22
2022-08-27T15:26:59.559Z,7.32
2022-08-27T15:29:27.092Z,7.55
2022-08-27T15:34:21.081Z,6.57
2022-08-27T15:36:47.732Z,5.93
2022-08-27T15:39:14.306Z,6.40
2022-08-27T15:42:05.375Z,5.40
2022-08-27T15:44:29.120Z,5.72
2022-08-27T15:46:55.889Z,5.07
2022-08-27T15:49:22.477Z,4.97
2022-08-27T15:51:49.724Z,5.03
2022-08-27T15:54:18.876Z,4.82
2022-08-27T15:56:45.406Z,4.40
2022-08-27T15:59:11.972Z,4.65
2022-08-27T16:01:39.795Z,5.38
2022-08-27T16:04:07.182Z,5.53
2022-08-27T16:06:34.965Z,5.10
2022-08-27T16:09:02.547Z,7.30
2022-08-27T16:13:55.989Z,3.63
2022-08-27T16:16:27.810Z,4.37
2022-08-27T16:18:54.544Z,4.20
2022-08-27T16:21:21.840Z,4.03
2022-08-27T16:23:48.886Z,3.65
2022-08-27T16:26:16.558Z,3.67
2022-08-27T16:28:44.758Z,5.88
2022-08-27T16:31:13.321Z,4.90
2022-08-27T16:33:42.430Z,4.88
2022-08-27T16:36:09.698Z,4.60
2022-08-27T16:38:36.815Z,4.45
2022-08-27T16:41:03.755Z,4.50
2022-08-27T16:43:30.783Z,3.97
2022-08-27T16:45:59.544Z,4.90
2022-08-27T16:48:45.444Z,6.80
2022-08-27T16:51:22.905Z,5.97
2022-08-27T16:53:50.995Z,4.15
2022-08-27T16:56:20.455Z,3.92
2022-08-27T16:58:48.835Z,4.20
2022-08-27T17:01:18.731Z,4.10
2022-08-27T17:04:07.653Z,3.90
2022-08-27T17:06:34.425Z,3.55
2022-08-27T17:09:05.369Z,3.30
2022-08-27T17:11:34.112Z,3.65
2022-08-27T17:14:04.990Z,4.25
2022-08-27T17:16:35.901Z,7.00
2022-08-27T17:19:04.527Z,5.90
2022-08-27T17:21:32.756Z,5.57
2022-08-27T17:24:02.481Z,4.65
2022-08-27T17:26:30.983Z,4.70
2022-08-27T17:28:58.376Z,4.65
2022-08-27T17:31:36.980Z,3.70
2022-08-27T17:34:05.676Z,3.17
2022-08-27T17:36:33.165Z,3.28
2022-08-27T17:41:33.668Z,3.22
2022-08-27T17:44:04.390Z,2.92
2022-08-27T17:46:31.257Z,2.92
2022-08-27T17:48:58.233Z,2.90
2022-08-27T17:51:24.814Z,3.30
2022-08-27T17:53:59.786Z,3.13
2022-08-27T17:58:40.884Z,5.80
2022-08-27T18:01:10.436Z,3.50
2022-08-27T18:03:48.145Z,8.68
2022-08-27T18:06:15.705Z,5.13
2022-08-27T18:11:10.816Z,3.10
2022-08-27T18:13:37.662Z,3.50
2022-08-27T18:16:05.462Z,3.17
2022-08-27T18:18:32.886Z,2.80
2022-08-27T18:20:59.420Z,2.70
2022-08-27T18:23:27.057Z,2.97
2022-08-27T18:28:22.303Z,3.20
2022-08-27T18:30:49.829Z,2.60
2022-08-27T18:35:43.774Z,2.80
2022-08-27T18:38:10.525Z,2.95
2022-08-27T18:40:46.330Z,2.70
2022-08-27T18:43:14.207Z,2.45
2022-08-27T18:45:40.792Z,2.97
2022-08-27T18:48:18.048Z,2.63
2022-08-27T18:50:48.810Z,2.60
2022-08-27T18:53:18.552Z,3.00
2022-08-27T18:55:45.110Z,3.33
2022-08-27T18:58:12.084Z,3.20
2022-08-27T19:00:42.553Z,2.70
2022-08-27T19:03:10.562Z,2.90
2022-08-27T19:05:37.207Z,3.42
2022-08-27T19:08:04.252Z,3.47
2022-08-27T19:10:31.593Z,3.27
2022-08-27T19:12:58.084Z,2.92
2022-08-27T19:15:24.600Z,2.88
2022-08-27T19:17:54.289Z,3.13
2022-08-27T19:20:21.741Z,2.35
2022-08-27T19:22:48.555Z,3.15
2022-08-27T19:25:16.288Z,3.47
2022-08-27T19:27:44.169Z,3.50
2022-08-27T19:30:11.577Z,3.40
2022-08-27T19:32:38.268Z,3.67
2022-08-27T19:35:05.684Z,3.03
2022-08-27T19:37:39.815Z,2.58
2022-08-27T19:40:09.069Z,2.17
2022-08-27T19:45:02.293Z,2.80
2022-08-27T19:47:29.110Z,2.15
2022-08-27T19:49:56.566Z,2.30
2022-08-27T19:52:23.444Z,2.33
2022-08-27T19:55:12.695Z,2.17
2022-08-27T19:57:36.636Z,2.40
2022-08-27T20:00:08.833Z,3.05
2022-08-27T20:02:35.543Z,2.03
2022-08-27T20:05:17.542Z,2.27
2022-08-27T20:07:45.564Z,2.88
2022-08-27T20:10:18.179Z,2.72
2022-08-27T20:12:52.619Z,5.10
2022-08-27T20:15:23.554Z,4.13
2022-08-27T20:17:52.127Z,4.85
2022-08-27T20:20:23.620Z,2.22
2022-08-27T20:22:50.558Z,2.60
2022-08-27T20:25:17.697Z,2.40
2022-08-27T20:27:47.102Z,2.60
2022-08-27T20:30:17.583Z,2.10
2022-08-27T20:32:55.873Z,2.38
2022-08-27T20:35:23.137Z,1.80
2022-08-27T20:37:50.453Z,2.92
2022-08-27T20:40:22.386Z,2.00
2022-08-27T20:42:50.559Z,2.40
2022-08-27T20:45:17.789Z,3.00
2022-08-27T20:47:47.247Z,1.60
2022-08-27T20:50:15.849Z,1.83
2022-08-27T20:52:46.378Z,2.45
2022-08-27T20:55:14.427Z,2.08
2022-08-27T20:58:11.861Z,1.65
2022-08-27T21:00:42.317Z,1.92
2022-08-27T21:03:11.629Z,2.30
2022-08-27T21:05:43.705Z,2.10
2022-08-27T21:08:10.996Z,2.33
2022-08-27T21:10:54.985Z,2.20
2022-08-27T21:13:22.506Z,1.85
2022-08-27T21:15:50.048Z,2.10
2022-08-27T21:18:21.756Z,1.90
2022-08-27T21:20:56.703Z,2.28
2022-08-27T21:23:23.268Z,2.03
2022-08-27T21:25:49.847Z,2.78
2022-08-27T21:28:16.406Z,2.15
2022-08-27T21:30:43.123Z,2.65
2022-08-27T21:33:09.747Z,2.27
2022-08-27T21:35:36.296Z,3.78
2022-08-27T21:38:02.973Z,2.85
2022-08-27T21:40:30.066Z,4.30
2022-08-27T21:43:01.304Z,2.95
2022-08-27T21:45:28.324Z,3.47
2022-08-27T21:47:55.105Z,2.90
2022-08-27T21:50:22.860Z,3.03
2022-08-27T21:52:50.192Z,2.33
2022-08-27T21:55:17.160Z,2.50
2022-08-27T21:57:43.750Z,2.33
2022-08-27T22:00:37.526Z,2.95
2022-08-27T22:03:04.531Z,2.63
2022-08-27T22:05:40.396Z,3.17
2022-08-27T22:08:08.143Z,2.80
2022-08-27T22:10:35.352Z,2.60
2022-08-27T22:13:02.225Z,2.50
2022-08-27T22:15:29.593Z,5.20
2022-08-27T22:17:56.266Z,3.05
2022-08-27T22:20:23.070Z,2.35
2022-08-27T22:22:49.685Z,2.43
2022-08-27T22:25:16.684Z,2.70
2022-08-27T22:27:43.406Z,2.42
2022-08-27T22:30:13.074Z,2.27
2022-08-27T22:32:40.902Z,2.50
2022-08-27T22:35:09.316Z,2.67
2022-08-27T22:37:36.767Z,1.63
2022-08-27T22:40:08.436Z,2.13
2022-08-27T22:42:46.275Z,2.30
2022-08-27T22:45:12.995Z,2.00
2022-08-27T22:47:39.949Z,1.97
2022-08-27T22:50:07.847Z,2.17
2022-08-27T22:52:39.322Z,2.20
2022-08-27T22:55:06.982Z,2.42
2022-08-27T22:57:34.866Z,1.95
2022-08-27T23:00:04.590Z,2.30
2022-08-27T23:02:31.234Z,1.80
2022-08-27T23:04:58.043Z,2.00
2022-08-27T23:07:24.989Z,2.00
2022-08-27T23:09:51.846Z,1.90
2022-08-27T23:12:20.756Z,1.63
2022-08-27T23:14:47.641Z,2.17
2022-08-27T23:17:16.260Z,2.53
2022-08-27T23:19:43.383Z,1.85
2022-08-27T23:22:10.021Z,2.28
2022-08-27T23:25:00.130Z,2.03
2022-08-27T23:27:29.746Z,2.22
2022-08-27T23:29:58.167Z,2.28
2022-08-27T23:32:25.903Z,1.83
2022-08-27T23:34:53.841Z,1.60
2022-08-27T23:37:21.260Z,2.10
2022-08-27T23:39:49.755Z,1.80
2022-08-27T23:42:20.855Z,2.10
2022-08-27T23:44:49.010Z,1.88
2022-08-27T23:47:16.750Z,1.73
2022-08-27T23:49:44.058Z,4.63
2022-08-27T23:52:14.742Z,1.63
2022-08-27T23:54:41.790Z,2.03
